createdAt,value
2018-12-19T00:05:03.511Z,78.34
2018-12-19T00:10:12.228Z,78.62
2018-12-19T00:15:20.026Z,78.49
2018-12-19T00:20:27.404Z,78.41
2018-12-19T00:25:35.171Z,78.72
2018-12-19T00:30:44.798Z,78.32
2018-12-19T00:35:53.535Z,78.17
2018-12-19T00:41:04.895Z,77.67
2018-12-19T00:46:15.496Z,77.63
2018-12-19T00:51:25.664Z,77.30
2018-12-19T00:56:36.672Z,76.92
2018-12-19T01:01:46.249Z,76.99
2018-12-19T01:06:55.551Z,76.83
2018-12-19T01:12:03.889Z,76.18
2018-12-19T01:17:09.848Z,76.28
2018-12-19T01:22:17.614Z,75.83
2018-12-19T01:27:26.746Z,75.81
2018-12-19T01:32:33.306Z,76.03
2018-12-19T01:37:43.205Z,75.51
2018-12-19T01:42:52.601Z,75.58
2018-12-19T01:48:01.354Z,75.40
2018-12-19T01:53:09.644Z,74.48
2018-12-19T01:58:20.137Z,73.77
2018-12-19T02:03:28.687Z,74.14
2018-12-19T02:08:36.299Z,73.77
2018-12-19T02:13:45.187Z,73.24
2018-12-19T02:18:54.079Z,73.15
2018-12-19T02:24:01.982Z,72.93
2018-12-19T02:29:09.851Z,73.05
2018-12-19T02:34:20.298Z,72.13
2018-12-19T02:39:35.940Z,72.28
2018-12-19T02:44:38.764Z,71.84
2018-12-19T02:49:47.509Z,72.08
2018-12-19T02:54:56.547Z,72.35
2018-12-19T03:00:05.761Z,72.65
2018-12-19T03:05:14.162Z,73.66
2018-12-19T03:10:23.681Z,73.66
2018-12-19T03:15:32.359Z,73.78
2018-12-19T03:20:41.141Z,74.38
2018-12-19T03:25:49.995Z,74.63
2018-12-19T03:31:01.064Z,74.62
2018-12-19T03:36:08.689Z,74.77
2018-12-19T03:41:17.877Z,75.00
2018-12-19T03:46:23.657Z,75.10
2018-12-19T03:51:32.743Z,74.99
2018-12-19T03:56:43.296Z,74.82
2018-12-19T04:01:52.183Z,74.51
2018-12-19T04:06:59.344Z,74.85
2018-12-19T04:12:10.869Z,76.21
2018-12-19T04:17:18.674Z,78.62
2018-12-19T04:22:30.055Z,79.88
2018-12-19T04:27:37.860Z,80.55
2018-12-19T04:32:46.409Z,80.04
2018-12-19T04:37:53.625Z,80.70
2018-12-19T04:43:02.557Z,81.13
2018-12-19T04:48:13.280Z,81.13
2018-12-19T04:53:23.981Z,81.40
2018-12-19T04:58:34.852Z,82.92
2018-12-19T05:03:42.770Z,84.67
2018-12-19T05:08:52.620Z,86.10
2018-12-19T05:15:03.945Z,87.71
2018-12-19T05:20:14.368Z,88.43
2018-12-19T05:25:23.372Z,89.06
2018-12-19T05:30:33.256Z,91.05
2018-12-19T05:35:43.708Z,92.12
2018-12-19T05:40:52.741Z,92.66
2018-12-19T05:46:01.477Z,92.85
2018-12-19T05:51:08.396Z,93.46
2018-12-19T05:56:21.535Z,93.59
2018-12-19T06:01:30.246Z,93.84
2018-12-19T06:06:40.141Z,93.95
2018-12-19T06:11:53.364Z,94.25
2018-12-19T06:17:07.457Z,94.34
2018-12-19T06:22:14.728Z,94.29
2018-12-19T06:27:22.019Z,94.34
2018-12-19T06:32:30.818Z,94.73
2018-12-19T06:37:37.254Z,94.79
2018-12-19T06:42:48.652Z,94.77
2018-12-19T06:47:59.412Z,94.84
2018-12-19T06:53:06.733Z,94.94
2018-12-19T06:58:16.800Z,95.21
2018-12-19T07:03:25.407Z,95.31
2018-12-19T07:08:34.030Z,95.31
2018-12-19T07:13:43.588Z,95.39
2018-12-19T07:18:51.777Z,95.25
2018-12-19T07:23:59.553Z,95.15
2018-12-19T07:29:06.120Z,94.84
2018-12-19T07:34:14.876Z,94.90
2018-12-19T07:39:22.431Z,95.28
2018-12-19T07:44:32.089Z,95.26
2018-12-19T07:49:40.010Z,95.13
2018-12-19T07:54:50.855Z,94.90
2018-12-19T07:59:59.174Z,95.08
2018-12-19T08:05:09.371Z,95.08
2018-12-19T08:10:17.866Z,94.83
2018-12-19T08:15:25.844Z,94.64
2018-12-19T08:20:56.036Z,94.63
2018-12-19T08:26:02.593Z,94.83
2018-12-19T08:31:11.312Z,94.50
2018-12-19T08:36:21.813Z,94.49
2018-12-19T08:41:29.675Z,94.20
2018-12-19T08:46:37.325Z,93.87
2018-12-19T08:51:45.713Z,93.91
2018-12-19T08:56:53.106Z,93.69
2018-12-19T09:02:01.855Z,93.64
2018-12-19T09:07:10.245Z,93.15
2018-12-19T09:12:22.587Z,93.22
2018-12-19T09:17:32.706Z,93.14
2018-12-19T09:22:42.286Z,93.07
2018-12-19T09:27:52.004Z,92.46
2018-12-19T09:33:01.351Z,92.19
2018-12-19T09:38:10.949Z,91.43
2018-12-19T09:43:19.648Z,89.95
2018-12-19T09:48:32.461Z,89.50
2018-12-19T09:53:42.039Z,89.05
2018-12-19T09:58:50.803Z,88.55
2018-12-19T10:03:59.946Z,86.96
2018-12-19T10:09:14.804Z,86.57
2018-12-19T10:14:24.329Z,85.01
2018-12-19T10:19:37.886Z,85.52
2018-12-19T10:25:04.320Z,86.26
2018-12-19T10:30:15.045Z,85.75
2018-12-19T10:35:52.125Z,85.31
2018-12-19T10:41:02.111Z,85.50
2018-12-19T10:46:10.022Z,85.71
2018-12-19T10:51:19.752Z,86.03
2018-12-19T10:56:31.167Z,85.83
2018-12-19T11:01:38.920Z,85.27
2018-12-19T11:06:46.974Z,85.26
2018-12-19T11:12:04.548Z,84.32
2018-12-19T11:17:27.563Z,83.24
2018-12-19T11:22:33.649Z,81.51
2018-12-19T11:27:42.086Z,79.38
2018-12-19T11:32:58.294Z,77.56
2018-12-19T11:38:08.580Z,76.43
2018-12-19T11:43:18.776Z,76.84
2018-12-19T11:48:28.709Z,77.17
2018-12-19T11:53:37.544Z,78.34
2018-12-19T11:58:46.381Z,78.99
2018-12-19T12:03:53.736Z,79.40
2018-12-19T12:08:59.119Z,80.09
2018-12-19T12:14:07.969Z,79.80
2018-12-19T12:19:18.501Z,79.65
2018-12-19T12:24:28.224Z,80.49
2018-12-19T12:29:41.662Z,80.57
2018-12-19T12:34:52.015Z,80.56
2018-12-19T12:39:59.112Z,80.83
2018-12-19T12:45:13.349Z,80.43
2018-12-19T12:50:23.007Z,80.04
2018-12-19T12:55:36.048Z,79.76
2018-12-19T13:00:45.159Z,79.84
2018-12-19T13:05:54.424Z,79.69
2018-12-19T13:11:01.587Z,79.24
2018-12-19T13:16:09.471Z,79.45
2018-12-19T13:21:17.910Z,79.55
2018-12-19T13:26:27.573Z,79.37
2018-12-19T13:31:35.494Z,79.17
2018-12-19T13:36:44.209Z,79.15
2018-12-19T13:41:52.436Z,79.31
2018-12-19T13:47:02.143Z,79.20
2018-12-19T13:52:10.192Z,79.30
2018-12-19T13:57:17.659Z,79.57
2018-12-19T14:02:26.395Z,79.23
2018-12-19T14:07:35.443Z,79.45
2018-12-19T14:12:42.152Z,79.38
2018-12-19T14:17:49.935Z,79.24
2018-12-19T14:22:55.764Z,79.33
2018-12-19T14:28:08.354Z,79.62
2018-12-19T14:33:19.026Z,79.56
2018-12-19T14:38:27.210Z,79.50
2018-12-19T14:43:34.385Z,79.62
2018-12-19T14:48:43.243Z,79.86
2018-12-19T14:53:52.896Z,79.99
2018-12-19T14:59:03.182Z,80.26
2018-12-19T15:04:12.918Z,80.11
2018-12-19T15:09:22.483Z,80.64
2018-12-19T15:14:30.081Z,80.52
2018-12-19T15:19:36.824Z,80.97
2018-12-19T15:24:47.393Z,81.77
2018-12-19T15:29:54.532Z,82.45
2018-12-19T15:35:02.447Z,82.72
2018-12-19T15:40:13.369Z,83.39
2018-12-19T15:45:22.531Z,83.57
2018-12-19T15:50:31.915Z,83.26
2018-12-19T15:55:38.923Z,83.04
2018-12-19T16:00:48.263Z,82.62
2018-12-19T16:05:55.472Z,82.40
2018-12-19T16:11:02.209Z,82.20
2018-12-19T16:16:11.715Z,82.29
2018-12-19T16:21:18.087Z,82.02
2018-12-19T16:26:26.691Z,82.30
2018-12-19T16:31:35.240Z,82.31
2018-12-19T16:36:45.090Z,82.42
2018-12-19T16:41:52.793Z,82.57
2018-12-19T16:47:02.403Z,82.51
2018-12-19T16:52:10.506Z,82.75
2018-12-19T16:57:18.321Z,83.10
2018-12-19T17:02:26.430Z,82.94
2018-12-19T17:07:34.630Z,83.05
2018-12-19T17:12:40.075Z,83.54
2018-12-19T17:17:47.553Z,84.07
2018-12-19T17:22:56.292Z,84.04
2018-12-19T17:28:02.940Z,84.19
2018-12-19T17:33:12.639Z,84.28
2018-12-19T17:38:22.181Z,84.62
2018-12-19T17:43:35.307Z,84.72
2018-12-19T17:48:42.430Z,84.93
2018-12-19T17:53:54.034Z,85.19
2018-12-19T17:58:59.235Z,85.54
2018-12-19T18:04:11.359Z,85.83
2018-12-19T18:09:22.827Z,85.97
2018-12-19T18:14:31.812Z,86.13
2018-12-19T18:19:40.195Z,86.13
2018-12-19T18:24:49.986Z,86.36
2018-12-19T18:29:57.788Z,86.41
2018-12-19T18:35:06.800Z,86.77
2018-12-19T18:40:14.172Z,86.65
2018-12-19T18:45:24.275Z,86.91
2018-12-19T18:50:32.517Z,86.90
2018-12-19T18:55:40.575Z,86.98
2018-12-19T19:00:49.335Z,87.03
2018-12-19T19:05:58.995Z,87.19
2018-12-19T19:11:07.262Z,87.38
2018-12-19T19:16:16.680Z,87.70
2018-12-19T19:21:24.906Z,87.95
2018-12-19T19:26:33.980Z,88.14
2018-12-19T19:31:40.406Z,88.14
2018-12-19T19:36:54.976Z,88.20
2018-12-19T19:42:03.304Z,88.35
2018-12-19T19:47:11.491Z,88.61
2018-12-19T19:52:20.286Z,88.61
2018-12-19T19:57:29.820Z,88.79
2018-12-19T20:02:35.782Z,89.16
2018-12-19T20:07:42.976Z,89.55
2018-12-19T20:12:50.345Z,89.94
2018-12-19T20:17:58.132Z,89.91
2018-12-19T20:23:06.057Z,90.24
2018-12-19T20:28:12.691Z,90.56
2018-12-19T20:33:20.276Z,90.50
2018-12-19T20:38:28.158Z,90.36
2018-12-19T20:43:39.947Z,90.01
2018-12-19T20:48:49.263Z,90.23
2018-12-19T20:53:58.020Z,90.11
2018-12-19T20:59:07.530Z,90.18
2018-12-19T21:04:19.204Z,90.00
2018-12-19T21:09:27.413Z,89.62
2018-12-19T21:14:35.205Z,89.25
2018-12-19T21:19:43.163Z,89.38
2018-12-19T21:24:55.807Z,89.67
2018-12-19T21:30:05.861Z,89.84
2018-12-19T21:35:15.552Z,89.46
2018-12-19T21:40:23.425Z,89.74
2018-12-19T21:45:33.999Z,89.53
2018-12-19T21:51:04.958Z,89.48
2018-12-19T21:56:15.350Z,89.51
2018-12-19T22:01:22.774Z,89.42
2018-12-19T22:06:29.893Z,89.27
2018-12-19T22:11:37.056Z,89.79
2018-12-19T22:17:02.142Z,89.95
2018-12-19T22:22:10.407Z,90.16
2018-12-19T22:27:16.775Z,90.23
2018-12-19T22:32:26.280Z,90.44
2018-12-19T22:37:36.353Z,90.54
2018-12-19T22:42:48.450Z,90.32
2018-12-19T22:47:58.895Z,90.04
2018-12-19T22:53:05.976Z,90.09
2018-12-19T22:58:13.310Z,90.12
2018-12-19T23:03:22.963Z,90.25
2018-12-19T23:08:30.219Z,90.47
2018-12-19T23:13:37.245Z,90.25
2018-12-19T23:18:47.365Z,90.61
2018-12-19T23:24:15.805Z,90.86
2018-12-19T23:29:25.362Z,90.62
2018-12-19T23:34:34.256Z,90.62
2018-12-19T23:39:41.154Z,90.37
2018-12-19T23:44:51.680Z,90.57
2018-12-19T23:49:59.867Z,90.33
2018-12-19T23:55:07.077Z,90.28
